Main page
METAR-TAF:

METAR-TAF

Airports :

Federico García Lorca Airport

Granada, Spain

latitude: 37-11N, longitude: 003-47W, elevation: 567 m

Current weather observation

The report was made 27 minutes ago, at 21:30 UTC
Calm wind
Temperature 10°C
Humidity 82%
Pressure 1016 hPa
Visibility 10 km or more
no clouds below 1500 m and no cumulonimbus

METAR: LEGR 212130Z AUTO 00000KT CAVOK 10/07 Q1016

Time: 23:57 (21:57 UTC)

Forecast

The report was made 1 hour and 57 minutes ago, at 20:00 UTC
Forecast valid from 21 at 21 UTC to 22 at 21 UTC
Wind 3 kt from variable directions
Visibility 10 km or more
Few clouds at a height of 4000 ft
Probability 40% :
Temporary
from 22 at 09 UTC to 22 at 18 UTC
Visibility: 4000 m
Scattered clouds at a height of 3000 ft, Towering cumulus.
rain showers

TAF: LEGR 212000Z 2121/2221 VRB03KT 9999 FEW040 TX18/2215Z TN04/2206Z PROB40 TEMPO 2209/2218 4000 SHRA SCT030TCU

Weather observations and forecasts of more than 4000 airports (METAR and TAF reports).

The available stations are represented by yellow and red dots on the map.

Hover mouse over dot to see the name of the station.

Then click to see weather observations and forecasts.

To change the map : click on the green buttons with a black cross to zoom in, on the green button with a dash to zoom out, or on the green arrows for adjacent maps.


METAR-TAF: